TAF KLAL
KLAL 280539Z 2806/2906 VRB03KT P6SM SCT250 FM281500 02004KT P6SM SCT120 SCT250 FM281800 32006KT P6SM SCT100 BKN250 FM290200 35003KT P6SM BKN100 AMD NOT SKED TIL 281100=
METAR KLAL
WC KLAL
WS KLAL
WV KLAL